createdAt,value
2023-04-17T00:00:08.071Z,0.00
2023-04-17T00:01:08.306Z,0.00
2023-04-17T00:02:08.104Z,0.00
2023-04-17T00:03:08.227Z,0.00
2023-04-17T00:04:08.172Z,0.00
2023-04-17T00:05:08.102Z,0.00
2023-04-17T00:06:08.045Z,0.00
2023-04-17T00:07:08.012Z,0.00
2023-04-17T00:08:08.014Z,0.00
2023-04-17T00:09:07.978Z,0.00
2023-04-17T00:10:08.056Z,0.00
2023-04-17T00:11:09.134Z,0.00
2023-04-17T00:12:07.970Z,0.00
2023-04-17T00:13:07.947Z,0.00
2023-04-17T00:14:07.931Z,0.00
2023-04-17T00:15:07.919Z,0.00
2023-04-17T00:16:07.965Z,0.00
2023-04-17T00:17:07.928Z,0.00
2023-04-17T00:18:07.900Z,0.00
2023-04-17T00:19:07.882Z,0.00
2023-04-17T00:20:07.901Z,0.00
2023-04-17T00:21:07.848Z,0.00
2023-04-17T00:22:07.868Z,0.00
2023-04-17T00:23:07.829Z,0.00
2023-04-17T00:24:07.807Z,0.00
2023-04-17T00:25:07.818Z,0.00
2023-04-17T00:26:07.789Z,0.00
2023-04-17T00:27:07.776Z,0.00
2023-04-17T00:28:07.761Z,0.00
2023-04-17T00:29:07.884Z,0.00
2023-04-17T00:30:07.756Z,0.00
2023-04-17T00:31:07.742Z,0.00
2023-04-17T00:32:07.949Z,0.00
2023-04-17T00:33:07.777Z,0.00
2023-04-17T00:34:07.718Z,0.00
2023-04-17T00:35:07.694Z,0.00
2023-04-17T00:36:07.688Z,0.00
2023-04-17T00:37:07.679Z,0.00
2023-04-17T00:38:07.673Z,0.00
2023-04-17T00:39:07.837Z,0.00
2023-04-17T00:40:07.641Z,0.00
2023-04-17T00:41:07.754Z,0.00
2023-04-17T00:42:07.621Z,0.00
2023-04-17T00:43:07.622Z,0.00
2023-04-17T00:44:07.592Z,0.00
2023-04-17T00:45:07.584Z,0.00
2023-04-17T00:46:07.736Z,0.00
2023-04-17T00:47:07.576Z,0.00
2023-04-17T00:48:07.597Z,0.00
2023-04-17T00:49:07.559Z,0.00
2023-04-17T00:50:07.534Z,0.00
2023-04-17T00:51:07.530Z,0.00
2023-04-17T00:52:07.529Z,0.00
2023-04-17T00:53:07.500Z,0.00
2023-04-17T00:54:07.478Z,0.00
2023-04-17T00:55:07.479Z,0.00
2023-04-17T00:56:07.477Z,0.00
2023-04-17T00:57:07.460Z,0.00
2023-04-17T00:58:07.443Z,0.00
2023-04-17T00:59:07.437Z,0.00
2023-04-17T01:00:07.422Z,0.00
2023-04-17T01:01:07.520Z,0.00
2023-04-17T01:02:07.478Z,0.00
2023-04-17T01:03:07.558Z,0.00
2023-04-17T01:04:07.525Z,0.00
2023-04-17T01:05:07.452Z,0.00
2023-04-17T01:06:07.378Z,0.00
2023-04-17T01:07:07.383Z,0.00
2023-04-17T01:08:07.325Z,0.00
2023-04-17T01:09:07.312Z,0.00
2023-04-17T01:10:07.296Z,0.00
2023-04-17T01:11:07.292Z,0.00
2023-04-17T01:12:07.295Z,0.00
2023-04-17T01:13:07.289Z,0.00
2023-04-17T01:14:07.274Z,0.00
2023-04-17T01:15:07.243Z,0.00
2023-04-17T01:16:07.251Z,0.00
2023-04-17T01:17:07.309Z,0.00
2023-04-17T01:18:07.248Z,0.00
2023-04-17T01:19:07.203Z,0.00
2023-04-17T01:20:07.186Z,0.00
2023-04-17T01:21:07.211Z,0.00
2023-04-17T01:22:07.168Z,0.00
2023-04-17T01:23:07.157Z,0.00
2023-04-17T01:24:07.146Z,0.00
2023-04-17T01:25:07.153Z,0.00
2023-04-17T01:26:07.124Z,0.00
2023-04-17T01:27:07.110Z,0.00
2023-04-17T01:28:07.098Z,0.00
2023-04-17T01:29:07.093Z,0.00
2023-04-17T01:30:07.089Z,0.00
2023-04-17T01:31:07.114Z,0.00
2023-04-17T01:32:07.061Z,0.00
2023-04-17T01:33:07.089Z,0.00
2023-04-17T01:34:07.032Z,0.00
2023-04-17T01:35:07.038Z,0.00
2023-04-17T01:36:07.093Z,0.00
2023-04-17T01:37:07.024Z,0.00
2023-04-17T01:38:06.988Z,0.00
2023-04-17T01:39:06.982Z,0.00
2023-04-17T01:40:06.989Z,0.00
2023-04-17T01:41:06.959Z,0.00
2023-04-17T01:42:06.952Z,0.00
2023-04-17T01:43:06.939Z,0.00
2023-04-17T01:44:06.926Z,0.00
2023-04-17T01:45:06.926Z,0.00
2023-04-17T01:46:07.081Z,0.00
2023-04-17T01:47:06.892Z,0.00
2023-04-17T01:48:06.991Z,0.00
2023-04-17T01:49:06.870Z,0.00
2023-04-17T01:50:06.858Z,0.00
2023-04-17T01:51:06.864Z,0.00
2023-04-17T01:52:06.847Z,0.00
2023-04-17T01:53:06.842Z,0.00
2023-04-17T01:54:06.819Z,0.00
2023-04-17T01:55:06.803Z,0.00
2023-04-17T01:56:06.821Z,0.00
2023-04-17T01:57:06.785Z,0.00
2023-04-17T01:58:06.807Z,0.00
2023-04-17T01:59:06.758Z,0.00
2023-04-17T02:00:06.956Z,0.00
2023-04-17T02:01:06.750Z,0.00
2023-04-17T02:02:06.882Z,0.00
2023-04-17T02:03:06.809Z,0.00
2023-04-17T02:04:06.859Z,0.00
2023-04-17T02:05:06.697Z,0.00
2023-04-17T02:06:06.693Z,0.00
2023-04-17T02:07:06.676Z,0.00
2023-04-17T02:08:06.661Z,0.00
2023-04-17T02:09:06.687Z,0.00
2023-04-17T02:10:06.636Z,0.00
2023-04-17T02:11:06.654Z,0.00
2023-04-17T02:12:06.615Z,0.00
2023-04-17T02:13:06.609Z,0.00
2023-04-17T02:14:06.623Z,0.00
2023-04-17T02:15:06.606Z,0.00
2023-04-17T02:16:06.607Z,0.00
2023-04-17T02:17:06.632Z,0.00
2023-04-17T02:18:06.587Z,0.00
2023-04-17T02:19:06.856Z,0.00
2023-04-17T02:20:06.542Z,0.00
2023-04-17T02:21:06.514Z,0.00
2023-04-17T02:22:06.510Z,0.00
2023-04-17T02:23:06.493Z,0.00
2023-04-17T02:24:06.675Z,0.00
2023-04-17T02:25:06.523Z,0.00
2023-04-17T02:26:06.894Z,0.00
2023-04-17T02:27:06.447Z,0.00
2023-04-17T02:28:06.447Z,0.00
2023-04-17T02:29:06.427Z,0.00
2023-04-17T02:30:06.440Z,0.00
2023-04-17T02:31:06.451Z,0.00
2023-04-17T02:32:06.407Z,0.00
2023-04-17T02:33:06.407Z,0.00
2023-04-17T02:34:06.368Z,0.00
2023-04-17T02:35:06.371Z,0.00
2023-04-17T02:36:06.513Z,0.00
2023-04-17T02:37:06.342Z,0.00
2023-04-17T02:38:06.440Z,0.00
2023-04-17T02:39:06.316Z,0.00
2023-04-17T02:40:06.330Z,0.00
2023-04-17T02:41:06.348Z,0.00
2023-04-17T02:42:06.283Z,0.00
2023-04-17T02:43:06.284Z,0.00
2023-04-17T02:44:06.305Z,0.00
2023-04-17T02:45:06.252Z,0.00
2023-04-17T02:46:06.261Z,0.00
2023-04-17T02:47:06.231Z,0.00
2023-04-17T02:48:06.429Z,0.00
2023-04-17T02:49:06.203Z,0.00
2023-04-17T02:50:06.291Z,0.00
2023-04-17T02:51:06.202Z,0.00
2023-04-17T02:52:06.185Z,0.00
2023-04-17T02:53:06.173Z,0.00
2023-04-17T02:54:06.159Z,0.00
2023-04-17T02:55:06.209Z,0.00
2023-04-17T02:56:06.148Z,0.00
2023-04-17T02:57:06.158Z,0.00
2023-04-17T02:58:06.110Z,0.00
2023-04-17T02:59:06.116Z,0.00
2023-04-17T03:00:06.101Z,0.00
2023-04-17T03:01:06.132Z,0.00
2023-04-17T03:02:06.163Z,0.00
2023-04-17T03:03:06.265Z,0.00
2023-04-17T03:04:06.187Z,0.00
2023-04-17T03:05:06.037Z,0.00
2023-04-17T03:06:06.050Z,0.00
2023-04-17T03:07:06.028Z,0.00
2023-04-17T03:08:06.003Z,0.00
2023-04-17T03:09:05.989Z,0.00
2023-04-17T03:10:05.983Z,0.00
2023-04-17T03:11:06.004Z,0.00
2023-04-17T03:12:05.966Z,0.00
2023-04-17T03:13:05.961Z,0.00
2023-04-17T03:14:05.940Z,0.00
2023-04-17T03:15:07.684Z,0.00
2023-04-17T03:16:05.969Z,0.00
2023-04-17T03:17:05.921Z,0.00
2023-04-17T03:18:05.928Z,0.00
2023-04-17T03:19:05.941Z,0.00
2023-04-17T03:20:05.869Z,0.00
2023-04-17T03:21:05.893Z,0.00
2023-04-17T03:22:05.878Z,0.00
2023-04-17T03:23:05.836Z,0.00
2023-04-17T03:24:05.854Z,0.00
2023-04-17T03:25:05.823Z,0.00
2023-04-17T03:26:05.818Z,0.00
2023-04-17T03:27:05.795Z,0.00
2023-04-17T03:28:05.780Z,0.00
2023-04-17T03:29:05.787Z,0.00
2023-04-17T03:30:05.761Z,0.00
2023-04-17T03:31:05.765Z,0.00
2023-04-17T03:32:05.765Z,4.00
2023-04-17T03:33:05.784Z,4.00
2023-04-17T03:34:05.719Z,0.00
2023-04-17T03:35:05.719Z,4.00
2023-04-17T03:36:05.707Z,4.00
2023-04-17T03:37:05.683Z,4.00
2023-04-17T03:38:05.780Z,4.00
2023-04-17T03:39:05.658Z,4.00
2023-04-17T03:40:05.749Z,4.00
2023-04-17T03:41:05.650Z,4.00
2023-04-17T03:42:05.639Z,8.00
2023-04-17T03:43:05.621Z,8.00
2023-04-17T03:44:05.607Z,12.00
2023-04-17T03:45:05.631Z,12.00
2023-04-17T03:46:05.663Z,16.00
2023-04-17T03:47:05.575Z,16.00
2023-04-17T03:48:05.596Z,20.00
2023-04-17T03:49:05.562Z,20.00
2023-04-17T03:50:05.542Z,24.00
2023-04-17T03:51:05.549Z,28.00
2023-04-17T03:52:05.518Z,36.00
2023-04-17T03:53:05.509Z,40.00
2023-04-17T03:54:05.493Z,44.00
2023-04-17T03:55:05.496Z,48.00
2023-04-17T03:56:05.493Z,56.00
2023-04-17T03:57:05.503Z,64.00
2023-04-17T03:58:05.456Z,72.00
2023-04-17T03:59:05.452Z,84.00
2023-04-17T04:00:05.429Z,88.00
2023-04-17T04:01:05.449Z,100.00
2023-04-17T04:02:05.508Z,108.00
2023-04-17T04:03:05.655Z,120.00
2023-04-17T04:04:05.541Z,128.00
2023-04-17T04:05:05.395Z,140.00
2023-04-17T04:06:05.382Z,152.00
2023-04-17T04:07:05.350Z,164.00
2023-04-17T04:08:05.331Z,176.00
2023-04-17T04:09:05.340Z,192.00
2023-04-17T04:10:05.331Z,212.00
2023-04-17T04:11:05.324Z,232.00
2023-04-17T04:12:05.291Z,256.00
2023-04-17T04:13:05.302Z,276.00
2023-04-17T04:14:05.289Z,300.00
2023-04-17T04:15:05.253Z,316.00
2023-04-17T04:16:05.278Z,336.00
2023-04-17T04:17:05.254Z,352.00
2023-04-17T04:18:05.273Z,364.00
2023-04-17T04:19:05.233Z,380.00
2023-04-17T04:20:05.258Z,384.00
2023-04-17T04:21:05.193Z,392.00
2023-04-17T04:22:06.837Z,408.00
2023-04-17T04:23:05.888Z,432.00
2023-04-17T04:24:05.177Z,460.00
2023-04-17T04:25:05.157Z,504.00
2023-04-17T04:26:05.138Z,556.00
2023-04-17T04:27:05.185Z,608.00
2023-04-17T04:28:05.110Z,644.00
2023-04-17T04:29:05.114Z,688.00
2023-04-17T04:30:05.897Z,732.00
2023-04-17T04:31:05.106Z,780.00
2023-04-17T04:32:05.104Z,828.00
2023-04-17T04:33:05.130Z,864.00
2023-04-17T04:34:05.048Z,900.00
2023-04-17T04:35:05.032Z,928.00
2023-04-17T04:36:05.026Z,956.00
2023-04-17T04:37:05.056Z,984.00
2023-04-17T04:38:05.040Z,1008.00
2023-04-17T04:39:04.983Z,1040.00
2023-04-17T04:40:04.985Z,1072.00
2023-04-17T04:41:04.970Z,1108.00
2023-04-17T04:42:05.157Z,1148.00
2023-04-17T04:43:05.415Z,1200.00
2023-04-17T04:44:04.941Z,1248.00
2023-04-17T04:45:04.924Z,1292.00
2023-04-17T04:46:04.927Z,1336.00
2023-04-17T04:47:05.020Z,1376.00
2023-04-17T04:48:11.976Z,1416.00
2023-04-17T04:49:04.903Z,1456.00
2023-04-17T04:50:04.873Z,1504.00
2023-04-17T04:51:04.855Z,1556.00
2023-04-17T04:52:04.848Z,1604.00
2023-04-17T04:53:04.846Z,1656.00
2023-04-17T04:54:04.826Z,1720.00
2023-04-17T04:55:04.809Z,1800.00
2023-04-17T04:56:04.815Z,1884.00
2023-04-17T04:57:04.785Z,1976.00
2023-04-17T04:58:04.798Z,2044.00
2023-04-17T04:59:04.775Z,2100.00
2023-04-17T05:00:04.760Z,2196.00
2023-04-17T05:01:04.805Z,2296.00
2023-04-17T05:02:04.783Z,2384.00
2023-04-17T05:03:05.010Z,2496.00
2023-04-17T05:04:04.925Z,2608.00
2023-04-17T05:05:04.822Z,2800.00
2023-04-17T05:06:04.697Z,2952.00
2023-04-17T05:07:04.677Z,3092.00
2023-04-17T05:08:04.701Z,3192.00
2023-04-17T05:09:04.658Z,3160.00
2023-04-17T05:10:04.648Z,3176.00
2023-04-17T05:11:04.638Z,3140.00
2023-04-17T05:12:04.639Z,3092.00
2023-04-17T05:13:04.628Z,3100.00
2023-04-17T05:14:04.642Z,3132.00
2023-04-17T05:15:04.601Z,3136.00
2023-04-17T05:16:04.612Z,3212.00
2023-04-17T05:17:04.585Z,3568.00
2023-04-17T05:18:04.651Z,3560.00
2023-04-17T05:19:04.553Z,3144.00
2023-04-17T05:20:04.743Z,3308.00
2023-04-17T05:21:04.533Z,3316.00
2023-04-17T05:22:04.516Z,3440.00
2023-04-17T05:23:04.584Z,3248.00
2023-04-17T05:24:04.509Z,3488.00
2023-04-17T05:25:04.482Z,3496.00
2023-04-17T05:26:04.477Z,3564.00
2023-04-17T05:27:04.477Z,3800.00
2023-04-17T05:28:04.475Z,3956.00
2023-04-17T05:29:04.445Z,3920.00
2023-04-17T05:30:04.453Z,3784.00
2023-04-17T05:31:04.433Z,4088.00
2023-04-17T05:32:04.517Z,3884.00
2023-04-17T05:33:04.462Z,4088.00
2023-04-17T05:34:04.386Z,3988.00
2023-04-17T05:35:04.374Z,4012.00
2023-04-17T05:36:04.393Z,3912.00
2023-04-17T05:37:04.365Z,4288.00
2023-04-17T05:38:04.362Z,4412.00
2023-04-17T05:39:04.328Z,4492.00
2023-04-17T05:40:04.317Z,4216.00
2023-04-17T05:41:04.329Z,4208.00
2023-04-17T05:42:04.302Z,4200.00
2023-04-17T05:43:04.286Z,4280.00
2023-04-17T05:44:04.345Z,4216.00
2023-04-17T05:45:04.266Z,4188.00
2023-04-17T05:46:04.553Z,4292.00
2023-04-17T05:47:04.250Z,4224.00
2023-04-17T05:48:04.289Z,4300.00
2023-04-17T05:49:04.218Z,4680.00
2023-04-17T05:50:04.226Z,4688.00
2023-04-17T05:51:04.345Z,4728.00
2023-04-17T05:52:04.232Z,4452.00
2023-04-17T05:53:04.175Z,4412.00
2023-04-17T05:54:04.187Z,4136.00
2023-04-17T05:55:04.166Z,3816.00
2023-04-17T05:56:04.161Z,3792.00
2023-04-17T05:57:04.149Z,3728.00
2023-04-17T05:58:16.873Z,3480.00
2023-04-17T05:59:05.120Z,3636.00
2023-04-17T06:00:04.100Z,3460.00
2023-04-17T06:01:04.102Z,3200.00
2023-04-17T06:02:04.138Z,3308.00
2023-04-17T06:03:04.250Z,3756.00
2023-04-17T06:04:04.339Z,3908.00
2023-04-17T06:05:04.258Z,4136.00
2023-04-17T06:06:04.039Z,3756.00
2023-04-17T06:07:04.037Z,3700.00
2023-04-17T06:08:04.056Z,3776.00
2023-04-17T06:09:04.011Z,3776.00
2023-04-17T06:10:04.017Z,4156.00
2023-04-17T06:11:03.996Z,3964.00
2023-04-17T06:12:03.981Z,3912.00
2023-04-17T06:13:03.972Z,4072.00
2023-04-17T06:14:03.947Z,3956.00
2023-04-17T06:15:03.960Z,4168.00
2023-04-17T06:16:03.929Z,3944.00
2023-04-17T06:17:03.940Z,4144.00
2023-04-17T06:18:03.972Z,3812.00
2023-04-17T06:19:03.895Z,4088.00
2023-04-17T06:20:03.903Z,4344.00
2023-04-17T06:21:03.873Z,4472.00
2023-04-17T06:22:03.858Z,4972.00
2023-04-17T06:23:03.846Z,5332.00
2023-04-17T06:24:03.943Z,5020.00
2023-04-17T06:25:03.864Z,5240.00
2023-04-17T06:26:03.818Z,5932.00
2023-04-17T06:27:03.889Z,5904.00
2023-04-17T06:28:03.794Z,5372.00
2023-04-17T06:29:03.931Z,5056.00
2023-04-17T06:30:03.781Z,4820.00
2023-04-17T06:31:03.831Z,5040.00
2023-04-17T06:32:03.748Z,4888.00
2023-04-17T06:33:03.764Z,4488.00
2023-04-17T06:34:03.756Z,4088.00
2023-04-17T06:35:03.746Z,4372.00
2023-04-17T06:36:03.705Z,4144.00
2023-04-17T06:37:03.695Z,4428.00
2023-04-17T06:38:03.685Z,4524.00
2023-04-17T06:39:03.696Z,4500.00
2023-04-17T06:40:03.695Z,4340.00
2023-04-17T06:41:03.655Z,4212.00
2023-04-17T06:42:03.648Z,4088.00
2023-04-17T06:43:03.643Z,4768.00
2023-04-17T06:44:03.634Z,4512.00
2023-04-17T06:45:03.600Z,4424.00
2023-04-17T06:46:03.602Z,4756.00
2023-04-17T06:47:03.584Z,4864.00
2023-04-17T06:48:03.644Z,4728.00
2023-04-17T06:49:03.562Z,4444.00
2023-04-17T06:50:03.565Z,4532.00
2023-04-17T06:51:03.536Z,4444.00
2023-04-17T06:52:03.538Z,4772.00
2023-04-17T06:53:03.517Z,4552.00
2023-04-17T06:54:03.513Z,4412.00
2023-04-17T06:55:03.543Z,5132.00
2023-04-17T06:56:03.501Z,5040.00
2023-04-17T06:57:03.472Z,4964.00
2023-04-17T06:58:03.473Z,5104.00
2023-04-17T06:59:03.455Z,5436.00
2023-04-17T07:00:03.964Z,5508.00
2023-04-17T07:01:03.458Z,5436.00
2023-04-17T07:02:03.523Z,6232.00
2023-04-17T07:03:03.521Z,5340.00
2023-04-17T07:04:03.451Z,5568.00
2023-04-17T07:05:03.417Z,5568.00
2023-04-17T07:06:03.375Z,5004.00
2023-04-17T07:07:03.363Z,5156.00
2023-04-17T07:08:03.368Z,5564.00
2023-04-17T07:09:03.344Z,5132.00
2023-04-17T07:10:03.325Z,5248.00
2023-04-17T07:11:03.323Z,5120.00
2023-04-17T07:12:03.345Z,4916.00
2023-04-17T07:13:03.301Z,4972.00
2023-04-17T07:14:03.387Z,4988.00
2023-04-17T07:15:03.349Z,5196.00
2023-04-17T07:16:03.449Z,4836.00
2023-04-17T07:17:03.246Z,5424.00
2023-04-17T07:18:03.269Z,5240.00
2023-04-17T07:19:03.227Z,5052.00
2023-04-17T07:20:03.228Z,5724.00
2023-04-17T07:21:03.198Z,5556.00
2023-04-17T07:22:03.189Z,5244.00
2023-04-17T07:23:03.179Z,5528.00
2023-04-17T07:24:03.964Z,6012.00
2023-04-17T07:25:03.188Z,5896.00
2023-04-17T07:26:03.156Z,5336.00
2023-04-17T07:27:03.151Z,6200.00
2023-04-17T07:28:04.511Z,6224.00
2023-04-17T07:29:03.110Z,5552.00
2023-04-17T07:30:03.098Z,5700.00
2023-04-17T07:31:03.118Z,5876.00
2023-04-17T07:32:03.285Z,5596.00
2023-04-17T07:33:03.100Z,5628.00
2023-04-17T07:34:03.057Z,5612.00
2023-04-17T07:35:03.060Z,5664.00
2023-04-17T07:36:03.036Z,5912.00
2023-04-17T07:37:03.026Z,6220.00
2023-04-17T07:38:03.023Z,5884.00
2023-04-17T07:39:03.016Z,6032.00
2023-04-17T07:40:03.011Z,6272.00
2023-04-17T07:41:03.003Z,6420.00
2023-04-17T07:42:02.976Z,7024.00
2023-04-17T07:43:02.969Z,7336.00
2023-04-17T07:44:02.968Z,7024.00
2023-04-17T07:45:02.951Z,7068.00
2023-04-17T07:46:02.976Z,8388.00
2023-04-17T07:47:02.918Z,9420.00
2023-04-17T07:48:02.926Z,8968.00
2023-04-17T07:49:02.884Z,8340.00
2023-04-17T07:50:02.970Z,10184.00
2023-04-17T07:51:02.873Z,13004.00
2023-04-17T07:52:02.854Z,10964.00
2023-04-17T07:53:02.848Z,9692.00
2023-04-17T07:54:02.833Z,10652.00
2023-04-17T07:55:02.929Z,10500.00
2023-04-17T07:56:02.826Z,10128.00
2023-04-17T07:57:02.886Z,9456.00
2023-04-17T07:58:02.787Z,9392.00
2023-04-17T07:59:02.771Z,9644.00
2023-04-17T08:00:02.782Z,11020.00
2023-04-17T08:01:02.766Z,10824.00
2023-04-17T08:02:02.979Z,11412.00
2023-04-17T08:03:02.922Z,11056.00
2023-04-17T08:04:03.240Z,10252.00
2023-04-17T08:05:02.904Z,9416.00
2023-04-17T08:06:02.709Z,8364.00
2023-04-17T08:07:02.683Z,8160.00
2023-04-17T08:08:02.679Z,8612.00
2023-04-17T08:09:02.660Z,8252.00
2023-04-17T08:10:02.650Z,7708.00
2023-04-17T08:11:02.650Z,6992.00
2023-04-17T08:12:02.669Z,7620.00
2023-04-17T08:13:02.618Z,10992.00
2023-04-17T08:14:02.631Z,12920.00
2023-04-17T08:15:02.595Z,15100.00
2023-04-17T08:16:02.696Z,13892.00
2023-04-17T08:17:02.712Z,14620.00
2023-04-17T08:18:02.619Z,17056.00
2023-04-17T08:19:02.559Z,16544.00
2023-04-17T08:20:02.553Z,14252.00
2023-04-17T08:21:02.532Z,13340.00
2023-04-17T08:22:02.537Z,12996.00
2023-04-17T08:23:02.509Z,12688.00
2023-04-17T08:24:02.498Z,11252.00
2023-04-17T08:25:02.502Z,10448.00
2023-04-17T08:26:02.491Z,12372.00
2023-04-17T08:27:02.475Z,14156.00
2023-04-17T08:28:02.587Z,13456.00
2023-04-17T08:29:02.447Z,11196.00
2023-04-17T08:30:02.445Z,9904.00
2023-04-17T08:31:02.453Z,8972.00
2023-04-17T08:32:14.149Z,8912.00
2023-04-17T08:33:03.499Z,9272.00
2023-04-17T08:34:13.089Z,8908.00
2023-04-17T08:35:03.407Z,9904.00
2023-04-17T08:36:04.004Z,11940.00
2023-04-17T08:37:02.350Z,11076.00
2023-04-17T08:38:02.344Z,9572.00
2023-04-17T08:39:02.330Z,8412.00
2023-04-17T08:40:02.450Z,8288.00
2023-04-17T08:41:02.308Z,9208.00
2023-04-17T08:42:02.294Z,12908.00
2023-04-17T08:43:02.284Z,10060.00
2023-04-17T08:44:02.287Z,8924.00
2023-04-17T08:45:02.261Z,8700.00
2023-04-17T08:46:02.312Z,8592.00
2023-04-17T08:47:02.271Z,9424.00
2023-04-17T08:48:02.386Z,13668.00
2023-04-17T08:49:02.332Z,18208.00
2023-04-17T08:50:02.202Z,38592.00
2023-04-17T08:51:02.199Z,80512.00
2023-04-17T08:52:02.242Z,58720.00
2023-04-17T08:53:02.176Z,59712.00
2023-04-17T08:54:02.162Z,62240.00
2023-04-17T08:55:02.168Z,53344.00
2023-04-17T08:56:03.791Z,57280.00
2023-04-17T08:57:02.227Z,43936.00
2023-04-17T08:58:02.170Z,41376.00
2023-04-17T08:59:02.182Z,29952.00
2023-04-17T09:00:02.158Z,25344.00
2023-04-17T09:01:02.085Z,24480.00
2023-04-17T09:02:02.355Z,24320.00
2023-04-17T09:03:02.246Z,34528.00
2023-04-17T09:04:02.415Z,37856.00
2023-04-17T09:05:02.253Z,16768.00
2023-04-17T09:06:02.031Z,14620.00
2023-04-17T09:07:02.099Z,12704.00
2023-04-17T09:08:02.065Z,10228.00
2023-04-17T09:09:02.016Z,12064.00
2023-04-17T09:10:01.983Z,16124.00
2023-04-17T09:11:02.117Z,13036.00
2023-04-17T09:12:01.981Z,10404.00
2023-04-17T09:13:01.967Z,8984.00
2023-04-17T09:14:01.965Z,8200.00
2023-04-17T09:15:01.930Z,7260.00
2023-04-17T09:16:02.181Z,7220.00
2023-04-17T09:17:01.919Z,7256.00
2023-04-17T09:18:02.096Z,6716.00
2023-04-17T09:19:01.884Z,6852.00
2023-04-17T09:20:01.922Z,11296.00
2023-04-17T09:21:01.864Z,13380.00
2023-04-17T09:22:01.911Z,11840.00
2023-04-17T09:23:01.855Z,12428.00
2023-04-17T09:24:01.836Z,11760.00
2023-04-17T09:25:01.831Z,11840.00
2023-04-17T09:26:01.819Z,10832.00
2023-04-17T09:27:01.801Z,10400.00
2023-04-17T09:28:01.850Z,12340.00
2023-04-17T09:29:01.777Z,15260.00
2023-04-17T09:30:01.843Z,17248.00
2023-04-17T09:31:01.784Z,16672.00
2023-04-17T09:32:01.764Z,15548.00
2023-04-17T09:33:01.855Z,14212.00
2023-04-17T09:34:01.727Z,13636.00
2023-04-17T09:35:01.835Z,20256.00
2023-04-17T09:36:01.734Z,23136.00
2023-04-17T09:37:01.712Z,26272.00
2023-04-17T09:38:01.685Z,26080.00
2023-04-17T09:39:01.676Z,26912.00
2023-04-17T09:40:01.826Z,27456.00
2023-04-17T09:41:01.640Z,33760.00
2023-04-17T09:42:03.211Z,74752.00
2023-04-17T09:43:01.760Z,51840.00
2023-04-17T09:44:01.657Z,38656.00
2023-04-17T09:45:01.619Z,21632.00
2023-04-17T09:46:01.583Z,14268.00
2023-04-17T09:47:02.120Z,11776.00
2023-04-17T09:48:01.661Z,11084.00
2023-04-17T09:49:01.640Z,9896.00
2023-04-17T09:50:01.534Z,8428.00
2023-04-17T09:51:01.585Z,6808.00
2023-04-17T09:52:01.547Z,5680.00
2023-04-17T09:53:01.508Z,5500.00
2023-04-17T09:54:01.550Z,6004.00
2023-04-17T09:55:01.562Z,6600.00
2023-04-17T09:56:01.474Z,7400.00
2023-04-17T09:57:01.476Z,7976.00
2023-04-17T09:58:01.458Z,7736.00
2023-04-17T09:59:01.437Z,7336.00
2023-04-17T10:00:01.433Z,9264.00
2023-04-17T10:01:01.541Z,13788.00
2023-04-17T10:02:01.532Z,20352.00
2023-04-17T10:03:01.673Z,17312.00
2023-04-17T10:04:01.585Z,15488.00
2023-04-17T10:05:01.377Z,12836.00
2023-04-17T10:06:02.016Z,12892.00
2023-04-17T10:07:01.345Z,14896.00
2023-04-17T10:08:01.366Z,16960.00
2023-04-17T10:09:01.357Z,14224.00
2023-04-17T10:10:01.314Z,16060.00
2023-04-17T10:11:01.324Z,15624.00
2023-04-17T10:12:01.300Z,13096.00
2023-04-17T10:13:01.296Z,12152.00
2023-04-17T10:14:01.264Z,13820.00
2023-04-17T10:15:01.272Z,22400.00
2023-04-17T10:16:01.275Z,24320.00
2023-04-17T10:17:01.339Z,26304.00
2023-04-17T10:18:01.371Z,95456.00
2023-04-17T10:19:01.212Z,66976.00
2023-04-17T10:20:01.203Z,92224.00
2023-04-17T10:21:01.192Z,94016.00
2023-04-17T10:22:01.171Z,40096.00
2023-04-17T10:23:01.190Z,101216.00
2023-04-17T10:24:01.170Z,51392.00
2023-04-17T10:25:01.411Z,34752.00
2023-04-17T10:26:01.155Z,37184.00
2023-04-17T10:27:01.150Z,16320.00
2023-04-17T10:28:01.110Z,10920.00
2023-04-17T10:29:01.114Z,8808.00
2023-04-17T10:30:01.087Z,7628.00
2023-04-17T10:31:01.078Z,7040.00
2023-04-17T10:32:01.114Z,6472.00
2023-04-17T10:33:01.091Z,6188.00
2023-04-17T10:34:01.050Z,6072.00
2023-04-17T10:35:01.126Z,6132.00
2023-04-17T10:36:01.035Z,5868.00
2023-04-17T10:37:01.040Z,5808.00
2023-04-17T10:38:01.009Z,6112.00
2023-04-17T10:39:01.014Z,7032.00
2023-04-17T10:40:01.004Z,8200.00
2023-04-17T10:41:00.981Z,10052.00
2023-04-17T10:42:01.003Z,14012.00
2023-04-17T10:43:00.944Z,17920.00
2023-04-17T10:44:00.930Z,18368.00
2023-04-17T10:45:00.923Z,14008.00
2023-04-17T10:46:00.982Z,12752.00
2023-04-17T10:47:00.987Z,12080.00
2023-04-17T10:48:01.028Z,11632.00
2023-04-17T10:49:00.906Z,11076.00
2023-04-17T10:50:00.891Z,11056.00
2023-04-17T10:51:00.885Z,13116.00
2023-04-17T10:52:00.840Z,13712.00
2023-04-17T10:53:00.835Z,12840.00
2023-04-17T10:54:00.826Z,12016.00
2023-04-17T10:55:00.825Z,10432.00
2023-04-17T10:56:00.868Z,8824.00
2023-04-17T10:57:00.788Z,7568.00
2023-04-17T10:58:00.924Z,6356.00
2023-04-17T10:59:00.848Z,5508.00
2023-04-17T11:00:00.785Z,5108.00
2023-04-17T11:01:00.899Z,5108.00
2023-04-17T11:02:01.587Z,5332.00
2023-04-17T11:03:00.961Z,5928.00
2023-04-17T11:04:00.757Z,5792.00
2023-04-17T11:05:00.753Z,6096.00
2023-04-17T11:06:00.790Z,10680.00
2023-04-17T11:07:00.702Z,19616.00
2023-04-17T11:08:00.666Z,27072.00
2023-04-17T11:09:00.653Z,29888.00
2023-04-17T11:10:00.637Z,31104.00
2023-04-17T11:11:00.654Z,32800.00
2023-04-17T11:12:00.634Z,32448.00
2023-04-17T11:13:00.612Z,32960.00
2023-04-17T11:14:00.622Z,34976.00
2023-04-17T11:15:00.586Z,32128.00
2023-04-17T11:16:00.592Z,33184.00
2023-04-17T11:17:00.608Z,26688.00
2023-04-17T11:18:00.598Z,14736.00
2023-04-17T11:19:00.542Z,10340.00
2023-04-17T11:20:00.537Z,8136.00
2023-04-17T11:21:00.530Z,7212.00
2023-04-17T11:22:00.506Z,6692.00
2023-04-17T11:23:00.496Z,6844.00
2023-04-17T11:24:00.526Z,7440.00
2023-04-17T11:25:00.540Z,8224.00
2023-04-17T11:26:00.524Z,8956.00
2023-04-17T11:27:00.503Z,9780.00
2023-04-17T11:28:00.454Z,11276.00
2023-04-17T11:29:00.457Z,12972.00
2023-04-17T11:30:00.413Z,12328.00
2023-04-17T11:31:00.435Z,11052.00
2023-04-17T11:32:00.413Z,9732.00
2023-04-17T11:33:00.479Z,8728.00
2023-04-17T11:34:00.371Z,7640.00
2023-04-17T11:35:00.364Z,7120.00
2023-04-17T11:36:00.349Z,6204.00
2023-04-17T11:37:00.367Z,5884.00
2023-04-17T11:38:00.329Z,6292.00
2023-04-17T11:39:01.086Z,6916.00
2023-04-17T11:40:00.304Z,7400.00
2023-04-17T11:41:00.297Z,8060.00
2023-04-17T11:42:00.309Z,9216.00
2023-04-17T11:43:00.292Z,10532.00
2023-04-17T11:44:00.396Z,11244.00
2023-04-17T11:45:01.655Z,13532.00
2023-04-17T11:46:00.263Z,18848.00
2023-04-17T11:47:00.320Z,23808.00
2023-04-17T11:48:00.248Z,26944.00
2023-04-17T11:49:00.230Z,28512.00
2023-04-17T11:50:00.197Z,28064.00
2023-04-17T11:51:00.185Z,26976.00
2023-04-17T11:52:00.251Z,24768.00
2023-04-17T11:53:00.176Z,24256.00
2023-04-17T11:54:00.176Z,22688.00
2023-04-17T11:55:00.147Z,18656.00
2023-04-17T11:56:01.041Z,14128.00
2023-04-17T11:57:00.169Z,11072.00
2023-04-17T11:58:00.151Z,9484.00
2023-04-17T11:59:00.136Z,8696.00
2023-04-17T12:00:00.157Z,8460.00
2023-04-17T12:01:00.072Z,8516.00
2023-04-17T12:02:00.131Z,8988.00
2023-04-17T12:03:00.456Z,9768.00
2023-04-17T12:04:00.457Z,10224.00
2023-04-17T12:05:00.224Z,10212.00
2023-04-17T12:06:00.162Z,10004.00
2023-04-17T12:07:00.008Z,10400.00
2023-04-17T12:08:00.008Z,10660.00
2023-04-17T12:08:59.981Z,10168.00
2023-04-17T12:09:59.975Z,9408.00
2023-04-17T12:10:59.960Z,8312.00
2023-04-17T12:11:59.947Z,7508.00
2023-04-17T12:12:59.955Z,7120.00
2023-04-17T12:13:59.921Z,7292.00
2023-04-17T12:14:59.916Z,7180.00
2023-04-17T12:15:59.984Z,7064.00
2023-04-17T12:16:59.922Z,6988.00
2023-04-17T12:18:00.171Z,6544.00
2023-04-17T12:18:59.874Z,6152.00
2023-04-17T12:19:59.865Z,5520.00
2023-04-17T12:20:59.847Z,5124.00
2023-04-17T12:21:59.854Z,4632.00
2023-04-17T12:22:59.838Z,4820.00